Time;durP1;ratioP1;P1;durP2;ratioP2;P2;SDS_P1;SDS_P2;PMS_P1;PMS_P2;Temp;Humidity;BMP_temperature;BMP_pressure;BME280_temperature;BME280_humidity;BME280_pressure;Samples;Min_cycle;Max_cycle;Signal;HPM_P1;HPM_P2
2022/03/05 00:00:54;;;;;;;40.25;23.60;;;5.30;94.20;;;;;;5050475;28;20096;-57
2022/03/05 00:03:20;;;;;;;38.83;23.33;;;5.30;94.80;;;;;;5050409;28;20229;-58
2022/03/05 00:05:46;;;;;;;42.13;23.27;;;5.20;94.60;;;;;;5050446;28;20141;-58
2022/03/05 00:08:12;;;;;;;40.60;23.88;;;5.10;95.40;;;;;;5049717;28;20159;-57
2022/03/05 00:10:38;;;;;;;40.70;22.67;;;5.00;95.50;;;;;;5050305;28;20385;-58
2022/03/05 00:13:04;;;;;;;43.30;23.40;;;5.00;95.70;;;;;;5050152;28;20036;-58
2022/03/05 00:15:30;;;;;;;40.67;23.73;;;5.00;95.90;;;;;;5048920;28;20122;-58
2022/03/05 00:17:56;;;;;;;42.25;22.77;;;4.90;96.10;;;;;;5049928;28;20487;-57
2022/03/05 00:20:23;;;;;;;41.40;23.15;;;4.90;96.00;;;;;;5050105;28;20359;-57
2022/03/05 00:22:53;;;;;;;43.28;22.25;;;4.90;96.10;;;;;;5050007;28;20013;-58
2022/03/05 00:25:20;;;;;;;43.47;23.42;;;4.90;96.10;;;;;;5050744;28;20394;-58
2022/03/05 00:27:46;;;;;;;41.75;23.00;;;4.90;96.20;;;;;;5050117;28;20432;-58
2022/03/05 00:30:12;;;;;;;38.85;22.33;;;4.90;96.30;;;;;;5052076;28;20033;-57
2022/03/05 00:32:38;;;;;;;39.17;23.17;;;4.80;96.50;;;;;;5052596;28;20049;-57
2022/03/05 00:35:05;;;;;;;42.17;23.67;;;4.80;96.80;;;;;;5054011;28;20386;-57
2022/03/05 00:37:31;;;;;;;46.20;24.77;;;4.70;97.00;;;;;;5052413;28;20043;-58
2022/03/05 00:39:57;;;;;;;40.85;24.50;;;4.70;96.90;;;;;;5053909;28;20021;-57
2022/03/05 00:42:22;;;;;;;41.40;24.35;;;4.70;97.00;;;;;;5053902;28;20051;-57
2022/03/05 00:44:48;;;;;;;42.63;23.70;;;4.70;97.30;;;;;;5054524;28;20029;-57
2022/03/05 00:47:14;;;;;;;41.58;23.67;;;4.70;97.30;;;;;;5054302;28;20558;-58
2022/03/05 00:49:39;;;;;;;44.33;24.27;;;4.60;97.80;;;;;;5054338;28;20052;-57
2022/03/05 00:52:05;;;;;;;42.08;24.35;;;4.60;98.20;;;;;;5054675;28;20033;-57
2022/03/05 00:54:31;;;;;;;41.65;24.15;;;4.50;98.50;;;;;;5054805;28;20063;-58
2022/03/05 00:56:56;;;;;;;39.17;23.65;;;4.40;98.60;;;;;;5054447;28;20554;-57
2022/03/05 00:59:22;;;;;;;41.65;24.15;;;4.40;98.70;;;;;;5053856;28;20031;-57
2022/03/05 01:01:48;;;;;;;38.38;22.70;;;4.30;99.00;;;;;;5053724;28;20031;-57
2022/03/05 01:04:13;;;;;;;41.97;23.35;;;4.30;99.30;;;;;;5053681;28;20245;-57
2022/03/05 01:06:39;;;;;;;41.28;23.67;;;4.40;99.10;;;;;;5053734;28;20025;-57
2022/03/05 01:09:05;;;;;;;41.90;23.98;;;4.40;98.50;;;;;;5053843;28;20090;-57
2022/03/05 01:11:31;;;;;;;45.33;23.35;;;4.40;98.80;;;;;;5053919;28;20054;-56
2022/03/05 01:13:57;;;;;;;39.95;23.50;;;4.40;98.40;;;;;;5053825;28;20055;-56
2022/03/05 01:16:23;;;;;;;42.60;24.40;;;4.20;98.80;;;;;;5053162;28;20482;-56
2022/03/05 01:18:49;;;;;;;42.42;23.33;;;4.30;99.20;;;;;;5053958;28;20474;-56
2022/03/05 01:21:15;;;;;;;39.22;24.02;;;4.20;99.30;;;;;;5053463;28;20100;-56
2022/03/05 01:23:41;;;;;;;42.50;24.38;;;4.20;99.50;;;;;;5054071;28;20488;-56
2022/03/05 01:26:06;;;;;;;42.90;24.42;;;4.10;99.40;;;;;;5053526;28;20025;-57
2022/03/05 01:28:33;;;;;;;44.45;24.05;;;4.00;99.70;;;;;;5053166;28;20341;-56
2022/03/05 01:30:59;;;;;;;45.58;24.42;;;3.80;99.90;;;;;;5053278;28;20041;-56
2022/03/05 01:33:25;;;;;;;44.35;25.35;;;3.70;99.90;;;;;;5053516;28;20082;-56
2022/03/05 01:35:51;;;;;;;43.35;25.67;;;3.70;99.90;;;;;;5053067;28;20441;-56
2022/03/05 01:38:17;;;;;;;47.47;24.85;;;3.70;99.90;;;;;;5052992;28;20225;-56
2022/03/05 01:40:45;;;;;;;47.10;24.98;;;3.60;99.90;;;;;;5052935;28;20033;-56
2022/03/05 01:43:11;;;;;;;45.65;24.38;;;3.60;99.90;;;;;;5052299;28;20021;-56
2022/03/05 01:45:38;;;;;;;44.13;25.15;;;3.60;99.90;;;;;;5053139;28;20025;-56
2022/03/05 01:48:05;;;;;;;48.95;25.30;;;3.70;99.90;;;;;;5052909;28;20431;-56
2022/03/05 01:50:31;;;;;;;44.80;24.05;;;3.70;99.90;;;;;;5052934;28;20025;-56
2022/03/05 01:52:59;;;;;;;47.95;24.88;;;3.70;99.90;;;;;;5052960;28;20405;-56
2022/03/05 01:55:25;;;;;;;45.13;26.23;;;3.70;99.90;;;;;;5053299;28;20359;-56
2022/03/05 01:57:51;;;;;;;59.15;25.45;;;3.70;99.90;;;;;;5050850;28;20036;-56
2022/03/05 02:00:18;;;;;;;42.85;24.90;;;3.70;99.90;;;;;;5052847;28;20033;-56
2022/03/05 02:02:45;;;;;;;47.25;25.85;;;3.70;99.90;;;;;;5053061;28;20453;-56
2022/03/05 02:05:11;;;;;;;47.58;26.10;;;3.70;99.90;;;;;;5052895;28;20025;-56
2022/03/05 02:07:37;;;;;;;45.00;25.65;;;3.70;99.90;;;;;;5052753;28;20025;-56
2022/03/05 02:10:08;;;;;;;49.00;27.02;;;3.70;99.90;;;;;;5052895;28;20398;-56
2022/03/05 02:12:35;;;;;;;47.05;26.52;;;3.70;99.90;;;;;;5052744;28;20024;-56
2022/03/05 02:15:01;;;;;;;46.97;27.00;;;3.60;99.90;;;;;;5052517;28;20021;-56
2022/03/05 02:17:28;;;;;;;48.10;27.65;;;3.60;99.90;;;;;;5052407;28;20025;-57
2022/03/05 02:19:54;;;;;;;51.00;27.95;;;3.60;99.90;;;;;;5052628;28;20032;-56
2022/03/05 02:22:20;;;;;;;49.38;26.67;;;3.40;99.90;;;;;;5052048;28;20047;-56
2022/03/05 02:24:50;;;;;;;50.15;25.98;;;3.20;99.90;;;;;;5052569;28;20028;-57
2022/03/05 02:27:15;;;;;;;52.08;28.25;;;3.00;99.90;;;;;;5052166;28;20025;-56
2022/03/05 02:29:44;;;;;;;53.25;28.08;;;2.80;99.90;;;;;;5052193;28;20032;-56
2022/03/05 02:32:10;;;;;;;50.67;26.83;;;2.80;99.90;;;;;;5051992;28;20048;-56
2022/03/05 02:34:35;;;;;;;49.13;27.33;;;2.70;99.90;;;;;;5052670;28;20028;-56
2022/03/05 02:37:01;;;;;;;52.00;28.23;;;2.70;99.90;;;;;;5052100;28;20471;-56
2022/03/05 02:39:27;;;;;;;49.05;28.95;;;2.80;99.90;;;;;;5052098;28;20032;-56
2022/03/05 02:41:53;;;;;;;48.22;27.95;;;2.80;99.90;;;;;;5051902;28;20044;-56
2022/03/05 02:44:20;;;;;;;51.10;27.95;;;2.70;99.90;;;;;;5051969;28;20121;-57
2022/03/05 02:46:45;;;;;;;50.90;27.83;;;2.60;99.90;;;;;;5051830;28;20058;-57
2022/03/05 02:49:11;;;;;;;54.38;27.75;;;2.40;99.90;;;;;;5051975;28;20048;-57
2022/03/05 02:51:38;;;;;;;56.00;28.70;;;2.20;99.90;;;;;;5051711;28;20017;-57
2022/03/05 02:54:04;;;;;;;51.88;28.55;;;2.20;99.90;;;;;;5051945;28;20501;-57
2022/03/05 02:56:30;;;;;;;51.45;28.70;;;2.20;99.90;;;;;;5051371;28;20096;-57
2022/03/05 02:58:55;;;;;;;54.28;29.30;;;2.30;99.90;;;;;;5051263;28;20108;-57
2022/03/05 03:01:21;;;;;;;51.63;28.33;;;2.30;99.90;;;;;;5051494;28;20131;-57
2022/03/05 03:03:46;;;;;;;57.42;28.85;;;2.20;99.90;;;;;;5051307;28;20029;-57
2022/03/05 03:06:12;;;;;;;46.92;28.05;;;2.20;99.90;;;;;;5051432;28;20028;-57
2022/03/05 03:08:38;;;;;;;50.65;28.83;;;2.20;99.90;;;;;;5050835;28;20033;-57
2022/03/05 03:11:03;;;;;;;53.35;29.17;;;2.20;99.90;;;;;;5051513;28;20036;-57
2022/03/05 03:13:29;;;;;;;55.42;28.65;;;2.20;99.90;;;;;;5051328;28;20064;-57
2022/03/05 03:15:54;;;;;;;55.83;29.38;;;2.10;99.90;;;;;;5051443;28;20063;-57
2022/03/05 03:18:20;;;;;;;57.08;29.90;;;2.00;99.90;;;;;;5051250;28;20558;-57
2022/03/05 03:20:46;;;;;;;52.80;30.05;;;1.90;99.90;;;;;;5051382;28;20024;-57
2022/03/05 03:23:12;;;;;;;61.05;31.02;;;2.10;99.90;;;;;;5051020;28;20226;-57
2022/03/05 03:25:39;;;;;;;57.50;29.58;;;2.10;99.90;;;;;;5051463;28;20107;-57
2022/03/05 03:28:05;;;;;;;52.90;30.08;;;2.10;99.90;;;;;;5051160;28;20025;-57
2022/03/05 03:30:31;;;;;;;56.95;30.90;;;2.20;99.90;;;;;;5049549;28;20483;-57
2022/03/05 03:32:57;;;;;;;58.13;30.25;;;2.30;99.90;;;;;;5050761;28;20171;-57
2022/03/05 03:35:24;;;;;;;54.92;30.88;;;2.30;99.90;;;;;;5051236;28;20129;-57
2022/03/05 03:37:50;;;;;;;56.65;30.35;;;2.40;99.90;;;;;;5050795;28;20060;-56
2022/03/05 03:40:17;;;;;;;53.58;29.38;;;2.30;99.90;;;;;;5051323;28;20031;-56
2022/03/05 03:42:46;;;;;;;51.95;29.02;;;2.30;99.90;;;;;;5051056;28;20107;-56
2022/03/05 03:45:13;;;;;;;53.20;30.33;;;2.30;99.90;;;;;;5051033;28;20032;-56
2022/03/05 03:47:41;;;;;;;55.42;30.20;;;2.20;99.90;;;;;;5051004;28;20037;-56
2022/03/05 03:50:09;;;;;;;53.70;30.35;;;2.10;99.90;;;;;;5050766;28;20170;-56
2022/03/05 03:52:34;;;;;;;62.03;32.35;;;2.00;99.90;;;;;;5049601;28;20430;-56
2022/03/05 03:55:01;;;;;;;60.08;31.15;;;2.00;99.90;;;;;;5051207;28;20341;-56
2022/03/05 03:57:26;;;;;;;53.35;30.92;;;2.10;99.90;;;;;;5050907;28;20104;-56
2022/03/05 03:59:52;;;;;;;58.53;31.55;;;2.10;99.90;;;;;;5051036;28;20108;-56
2022/03/05 04:02:21;;;;;;;55.28;32.30;;;2.30;99.90;;;;;;5051020;28;20013;-56
2022/03/05 04:04:47;;;;;;;57.65;31.20;;;2.20;99.90;;;;;;5052581;28;20039;-56
2022/03/05 04:09:57;;;;;;;54.92;31.27;;;1.80;99.90;;;;;;5055967;28;20397;-56
2022/03/05 04:12:23;;;;;;;59.55;31.98;;;1.70;99.90;;;;;;5054798;28;20033;-56
2022/03/05 04:14:49;;;;;;;57.85;32.55;;;1.90;99.90;;;;;;5055678;28;20029;-56
2022/03/05 04:17:15;;;;;;;63.40;32.45;;;2.00;99.90;;;;;;5055300;28;20419;-56
2022/03/05 04:19:41;;;;;;;55.00;31.90;;;2.10;99.90;;;;;;5054851;28;20303;-56
2022/03/05 04:22:07;;;;;;;51.40;29.58;;;1.90;99.90;;;;;;5054706;28;20021;-56
2022/03/05 04:24:33;;;;;;;50.70;29.83;;;1.60;99.90;;;;;;5054986;28;20036;-56
2022/03/05 04:26:58;;;;;;;56.88;30.80;;;1.40;99.90;;;;;;5055503;28;20036;-56
2022/03/05 04:29:24;;;;;;;59.45;31.27;;;1.40;99.90;;;;;;5054065;28;20025;-56
2022/03/05 04:31:50;;;;;;;52.05;30.48;;;1.30;99.90;;;;;;5054552;28;20057;-56
2022/03/05 04:34:16;;;;;;;61.50;31.98;;;1.20;99.90;;;;;;5053272;28;20029;-56
2022/03/05 04:36:42;;;;;;;56.17;30.42;;;1.20;99.90;;;;;;5054924;28;20351;-56
2022/03/05 04:39:08;;;;;;;56.72;32.05;;;1.10;99.90;;;;;;5054966;28;20025;-56
2022/03/05 04:41:34;;;;;;;56.97;32.33;;;1.10;99.90;;;;;;5054760;28;20029;-56
2022/03/05 04:44:00;;;;;;;58.42;31.38;;;1.10;99.90;;;;;;5053835;28;20394;-55
2022/03/05 04:46:25;;;;;;;59.88;32.20;;;1.00;99.90;;;;;;5054747;28;20027;-56
2022/03/05 04:48:51;;;;;;;55.65;30.85;;;1.00;99.90;;;;;;5054627;28;20029;-56
2022/03/05 04:51:17;;;;;;;66.63;32.35;;;1.00;99.90;;;;;;5054088;28;20021;-56
2022/03/05 04:53:43;;;;;;;58.47;32.33;;;1.00;99.90;;;;;;5054775;28;20374;-56
2022/03/05 04:56:08;;;;;;;57.08;32.03;;;1.20;99.90;;;;;;5054587;28;20382;-56
2022/03/05 04:58:34;;;;;;;59.45;32.65;;;1.30;99.90;;;;;;5054306;28;20041;-56
2022/03/05 05:01:01;;;;;;;59.60;32.72;;;1.30;99.90;;;;;;5054485;28;20037;-56
2022/03/05 05:03:27;;;;;;;59.70;32.38;;;1.40;99.90;;;;;;5054565;28;20040;-56
2022/03/05 05:05:52;;;;;;;56.72;30.75;;;1.30;99.90;;;;;;5054322;28;20486;-56
2022/03/05 05:08:18;;;;;;;58.00;30.55;;;1.40;99.90;;;;;;5054058;28;20039;-56
2022/03/05 05:10:44;;;;;;;48.83;29.08;;;1.40;99.90;;;;;;5054061;28;20039;-56
2022/03/05 05:13:09;;;;;;;51.10;29.40;;;1.40;99.90;;;;;;5053889;28;20036;-56
2022/03/05 05:15:35;;;;;;;61.20;30.45;;;1.40;99.90;;;;;;5053694;28;20649;-56
2022/03/05 05:18:01;;;;;;;57.20;32.05;;;1.50;99.90;;;;;;5053417;28;20023;-56
2022/03/05 05:20:27;;;;;;;61.47;31.23;;;1.40;99.90;;;;;;5053205;28;20021;-56
2022/03/05 05:22:53;;;;;;;53.88;29.38;;;1.50;99.90;;;;;;5054126;28;20104;-56
2022/03/05 05:25:18;;;;;;;55.30;29.33;;;1.40;99.90;;;;;;5053854;28;20079;-56
2022/03/05 05:27:45;;;;;;;52.28;29.52;;;1.50;99.90;;;;;;5053599;28;20025;-56
2022/03/05 05:30:10;;;;;;;56.60;30.15;;;1.50;99.90;;;;;;5053257;28;20025;-56
2022/03/05 05:32:36;;;;;;;50.42;28.90;;;1.80;99.90;;;;;;5053252;28;20575;-56
2022/03/05 05:35:03;;;;;;;54.13;28.83;;;1.80;99.90;;;;;;5054022;28;20475;-57
2022/03/05 05:37:29;;;;;;;52.95;29.88;;;1.60;99.90;;;;;;5053117;28;20410;-56
2022/03/05 05:39:54;;;;;;;53.88;29.55;;;1.60;99.90;;;;;;5053654;28;20029;-56
2022/03/05 05:42:20;;;;;;;57.90;29.05;;;1.40;99.90;;;;;;5053449;28;20021;-57
2022/03/05 05:44:46;;;;;;;51.97;29.17;;;1.40;99.90;;;;;;5053653;28;20104;-56
2022/03/05 05:47:11;;;;;;;53.50;27.73;;;1.30;99.90;;;;;;5053092;28;20033;-56
2022/03/05 05:49:37;;;;;;;56.00;29.77;;;1.30;99.90;;;;;;5052596;28;20421;-57
2022/03/05 05:52:04;;;;;;;55.25;29.35;;;1.20;99.90;;;;;;5052921;28;20017;-56
2022/03/05 05:54:29;;;;;;;52.75;29.10;;;1.30;99.90;;;;;;5052949;28;20505;-56
2022/03/05 05:56:55;;;;;;;56.85;30.08;;;1.30;99.90;;;;;;5053156;28;20024;-56
2022/03/05 05:59:21;;;;;;;52.78;29.60;;;1.30;99.90;;;;;;5052924;28;20017;-56
2022/03/05 06:01:46;;;;;;;58.17;29.55;;;1.30;99.90;;;;;;5052646;28;20025;-56
2022/03/05 06:04:12;;;;;;;56.58;28.67;;;1.20;99.90;;;;;;5052849;28;20024;-56
2022/03/05 06:06:38;;;;;;;57.13;28.25;;;1.30;99.90;;;;;;5052812;28;20025;-56
2022/03/05 06:09:04;;;;;;;54.17;28.95;;;1.30;99.90;;;;;;5052672;28;20028;-57
2022/03/05 06:11:32;;;;;;;54.92;28.73;;;1.10;99.90;;;;;;5052085;28;20036;-57
2022/03/05 06:13:58;;;;;;;54.22;29.15;;;1.00;99.90;;;;;;5052736;28;20017;-56
2022/03/05 06:16:23;;;;;;;54.92;28.73;;;1.10;99.90;;;;;;5052762;28;20033;-56
2022/03/05 06:18:50;;;;;;;50.63;27.92;;;1.20;99.90;;;;;;5052497;28;20104;-56
2022/03/05 06:21:16;;;;;;;49.58;27.67;;;1.20;99.90;;;;;;5052650;28;20024;-57
2022/03/05 06:23:42;;;;;;;50.95;27.75;;;1.20;99.90;;;;;;5052980;28;20029;-57
2022/03/05 06:26:08;;;;;;;55.10;29.35;;;1.20;99.90;;;;;;5052178;28;20029;-56
2022/03/05 06:28:34;;;;;;;50.92;27.67;;;1.20;99.90;;;;;;5051634;28;20040;-57
2022/03/05 06:31:00;;;;;;;50.38;27.85;;;1.20;99.90;;;;;;5052245;28;20537;-57
2022/03/05 06:33:26;;;;;;;52.38;27.92;;;1.20;99.90;;;;;;5052053;28;20029;-57
2022/03/05 06:35:52;;;;;;;54.35;28.27;;;1.10;99.90;;;;;;5052616;28;20025;-57
2022/03/05 06:38:18;;;;;;;48.88;27.92;;;1.10;99.90;;;;;;5051839;28;20071;-57
2022/03/05 06:40:44;;;;;;;56.97;29.38;;;1.10;99.90;;;;;;5051847;28;20029;-57
2022/03/05 06:43:11;;;;;;;54.17;28.67;;;1.20;99.90;;;;;;5051913;28;20021;-57
2022/03/05 06:45:36;;;;;;;53.05;29.25;;;1.30;99.90;;;;;;5052251;28;20375;-57
2022/03/05 06:48:03;;;;;;;53.03;28.55;;;1.30;99.90;;;;;;5052158;28;20024;-57
2022/03/05 06:50:29;;;;;;;52.95;27.45;;;1.20;99.90;;;;;;5051979;28;20092;-57
2022/03/05 06:52:54;;;;;;;57.10;27.63;;;1.00;99.90;;;;;;5051766;28;20440;-57
2022/03/05 06:55:20;;;;;;;53.67;27.98;;;1.00;99.90;;;;;;5052495;28;20029;-57
2022/03/05 06:57:45;;;;;;;54.00;27.60;;;1.00;99.90;;;;;;5051845;28;20078;-57
2022/03/05 07:00:13;;;;;;;52.08;28.63;;;1.00;99.90;;;;;;5051474;28;20036;-57
2022/03/05 07:02:40;;;;;;;52.90;28.98;;;1.10;99.90;;;;;;5051524;28;20528;-57
2022/03/05 07:05:06;;;;;;;50.63;28.80;;;1.20;99.90;;;;;;5051450;28;20068;-57
2022/03/05 07:07:32;;;;;;;54.28;29.05;;;1.30;99.90;;;;;;5051641;28;20044;-57
2022/03/05 07:09:57;;;;;;;54.25;29.40;;;1.40;99.90;;;;;;5051327;28;20441;-57
2022/03/05 07:12:25;;;;;;;53.67;28.90;;;1.50;99.90;;;;;;5051694;28;20104;-57
2022/03/05 07:14:50;;;;;;;54.25;29.35;;;1.50;99.90;;;;;;5051428;28;20513;-57
2022/03/05 07:17:16;;;;;;;52.10;28.65;;;1.60;99.90;;;;;;5051947;28;20148;-57
2022/03/05 07:19:42;;;;;;;51.55;28.75;;;1.70;99.90;;;;;;5052224;28;20386;-56
2022/03/05 07:22:08;;;;;;;56.63;28.65;;;1.80;99.90;;;;;;5051762;28;20075;-57
2022/03/05 07:24:33;;;;;;;52.13;28.63;;;1.90;99.90;;;;;;5051879;28;20100;-57
2022/03/05 07:26:59;;;;;;;58.70;30.50;;;2.00;99.90;;;;;;5051301;28;20029;-57
2022/03/05 07:29:25;;;;;;;64.65;31.92;;;2.10;99.90;;;;;;5051236;28;20466;-56
2022/03/05 07:31:51;;;;;;;51.33;29.90;;;2.30;99.90;;;;;;5050700;28;20052;-56
2022/03/05 07:34:16;;;;;;;55.47;30.00;;;2.40;99.90;;;;;;5051575;28;20497;-56
2022/03/05 07:36:42;;;;;;;54.15;28.92;;;2.50;99.90;;;;;;5051824;28;20047;-57
2022/03/05 07:39:08;;;;;;;52.85;30.13;;;2.60;99.90;;;;;;5051029;28;20020;-57
2022/03/05 07:41:36;;;;;;;54.58;28.60;;;2.60;99.90;;;;;;5051724;28;20025;-56
2022/03/05 07:44:02;;;;;;;51.30;29.25;;;2.70;99.90;;;;;;5051409;28;20021;-56
2022/03/05 07:46:28;;;;;;;56.30;30.38;;;2.80;99.90;;;;;;5051225;28;20052;-57
2022/03/05 07:48:54;;;;;;;60.15;34.53;;;2.90;99.90;;;;;;5051169;28;20098;-57
2022/03/05 07:51:20;;;;;;;57.75;32.47;;;3.00;99.90;;;;;;5051602;28;20430;-57
2022/03/05 07:53:45;;;;;;;61.33;34.72;;;3.10;99.90;;;;;;5051333;28;20025;-57
2022/03/05 07:56:11;;;;;;;62.80;35.05;;;3.10;99.90;;;;;;5050988;28;20386;-56
2022/03/05 07:58:37;;;;;;;55.97;30.50;;;3.20;99.90;;;;;;5051179;28;20096;-56
2022/03/05 08:01:02;;;;;;;55.28;32.22;;;3.40;99.90;;;;;;5050732;28;20032;-56
2022/03/05 08:03:28;;;;;;;57.13;33.83;;;3.60;99.90;;;;;;5050921;28;20061;-56
2022/03/05 08:05:53;;;;;;;59.83;32.78;;;3.80;99.90;;;;;;5050933;28;20029;-56
2022/03/05 08:08:19;;;;;;;65.38;34.47;;;3.90;99.90;;;;;;5051626;28;20462;-56
2022/03/05 08:10:45;;;;;;;60.78;35.13;;;4.10;99.90;;;;;;5050288;28;20028;-56
2022/03/05 08:13:12;;;;;;;60.65;34.33;;;4.20;99.90;;;;;;5050802;28;20386;-57
2022/03/05 08:15:38;;;;;;;63.60;35.72;;;4.40;99.90;;;;;;5050987;28;20041;-57
2022/03/05 08:18:03;;;;;;;63.78;35.15;;;4.50;99.90;;;;;;5051328;28;20466;-57
2022/03/05 08:20:31;;;;;;;64.40;34.63;;;4.50;99.90;;;;;;5049963;28;20378;-57
2022/03/05 08:22:57;;;;;;;55.50;34.13;;;5.00;99.90;;;;;;5051124;28;20078;-57
2022/03/05 08:25:23;;;;;;;63.05;34.40;;;6.20;99.90;;;;;;5050523;28;20151;-57
2022/03/05 08:27:49;;;;;;;57.58;33.42;;;7.60;99.90;;;;;;5052149;28;20105;-57
2022/03/05 08:30:16;;;;;;;56.47;32.60;;;8.80;99.90;;;;;;5057381;28;20025;-58
2022/03/05 08:32:42;;;;;;;55.83;33.38;;;10.00;99.90;;;;;;5049573;28;20057;-58
2022/03/05 08:35:09;;;;;;;49.15;33.00;;;11.30;99.10;;;;;;5049426;28;20033;-58
2022/03/05 08:37:35;;;;;;;48.40;31.48;;;11.70;96.80;;;;;;5049274;28;20017;-58
2022/03/05 08:40:01;;;;;;;48.60;32.38;;;11.20;96.90;;;;;;5050695;28;20044;-58
2022/03/05 08:42:27;;;;;;;50.72;33.28;;;11.20;96.80;;;;;;5049710;28;20428;-58
2022/03/05 08:44:53;;;;;;;48.55;32.85;;;10.80;97.40;;;;;;5050961;28;20086;-58
2022/03/05 08:47:18;;;;;;;54.53;35.08;;;10.10;98.40;;;;;;5050087;28;20029;-58
2022/03/05 08:49:44;;;;;;;50.67;33.55;;;9.90;99.10;;;;;;5050032;28;20029;-57
2022/03/05 08:52:09;;;;;;;51.15;33.80;;;10.30;97.70;;;;;;5051650;28;20037;-57
2022/03/05 08:54:36;;;;;;;50.30;34.35;;;10.00;97.20;;;;;;5053766;28;20025;-57
2022/03/05 08:57:02;;;;;;;54.03;34.90;;;9.60;98.10;;;;;;5053418;28;20067;-58
2022/03/05 08:59:29;;;;;;;50.40;34.40;;;9.90;97.50;;;;;;5053463;28;20108;-58
2022/03/05 09:01:55;;;;;;;49.92;32.83;;;10.40;97.10;;;;;;5053655;28;20036;-58
2022/03/05 09:04:21;;;;;;;50.28;32.97;;;11.30;95.40;;;;;;5053539;28;20032;-58
2022/03/05 09:06:47;;;;;;;48.47;32.92;;;11.80;93.80;;;;;;5052895;28;20371;-58
2022/03/05 09:09:12;;;;;;;46.95;32.35;;;12.40;93.30;;;;;;5053063;28;20517;-58
2022/03/05 09:11:39;;;;;;;48.33;33.10;;;12.20;93.30;;;;;;5052506;28;20033;-58
2022/03/05 09:14:05;;;;;;;44.83;32.20;;;12.40;93.40;;;;;;5052622;28;20381;-58
2022/03/05 09:16:31;;;;;;;49.53;33.88;;;12.50;92.20;;;;;;5052624;28;20036;-58
2022/03/05 09:18:56;;;;;;;47.25;34.30;;;11.90;93.10;;;;;;5053220;28;20033;-57
2022/03/05 09:21:22;;;;;;;46.67;34.50;;;11.60;94.00;;;;;;5053530;28;20100;-58
2022/03/05 09:23:48;;;;;;;47.28;34.22;;;12.50;92.80;;;;;;5052898;28;20056;-60
2022/03/05 09:26:14;;;;;;;48.28;33.88;;;13.00;91.70;;;;;;5052502;28;20028;-60
2022/03/05 09:28:40;;;;;;;47.50;33.67;;;13.70;90.80;;;;;;5052312;28;20035;-60
2022/03/05 09:31:06;;;;;;;53.90;34.10;;;13.80;90.30;;;;;;5052333;28;20052;-60
2022/03/05 09:33:32;;;;;;;46.58;33.50;;;14.30;90.10;;;;;;5052059;28;20079;-60
2022/03/05 09:35:57;;;;;;;52.58;34.40;;;14.90;86.70;;;;;;5052035;28;20028;-58
2022/03/05 09:38:23;;;;;;;48.70;33.35;;;13.30;90.30;;;;;;5052024;28;20017;-58
2022/03/05 09:40:49;;;;;;;46.00;33.92;;;13.90;89.70;;;;;;5052043;28;20035;-58
2022/03/05 09:43:20;;;;;;;47.40;33.72;;;14.10;89.50;;;;;;5052125;28;20722;-58
2022/03/05 09:45:46;;;;;;;48.47;33.85;;;14.20;89.10;;;;;;5052874;28;20332;-58
2022/03/05 09:48:16;;;;;;;46.47;32.83;;;14.30;90.00;;;;;;5051825;28;20393;-58
2022/03/05 09:50:42;;;;;;;43.50;32.40;;;14.50;88.30;;;;;;5052048;28;20036;-58
2022/03/05 09:53:08;;;;;;;48.58;33.13;;;13.90;88.60;;;;;;5051901;28;20060;-58
2022/03/05 09:55:33;;;;;;;46.60;33.83;;;13.70;89.50;;;;;;5052141;28;20494;-58
2022/03/05 09:57:59;;;;;;;47.30;32.95;;;13.70;89.70;;;;;;5052148;28;20490;-58
2022/03/05 10:00:25;;;;;;;48.17;32.95;;;14.00;88.00;;;;;;5051761;28;20025;-59
2022/03/05 10:02:51;;;;;;;46.10;32.58;;;14.90;84.90;;;;;;5050919;28;20029;-59
2022/03/05 10:05:26;;;;;;;42.72;31.98;;;15.00;84.20;;;;;;5051686;28;20032;-59
2022/03/05 10:08:08;;;;;;;41.40;32.40;;;15.90;83.40;;;;;;5051542;28;20230;-59
2022/03/05 10:10:52;;;;;;;43.80;32.90;;;16.30;81.10;;;;;;5051499;28;20017;-59
2022/03/05 10:13:28;;;;;;;44.80;33.13;;;16.60;80.30;;;;;;5051304;28;20071;-59
2022/03/05 10:15:57;;;;;;;42.17;32.13;;;15.80;81.70;;;;;;5051372;28;20021;-59
2022/03/05 10:18:39;;;;;;;44.38;33.60;;;16.00;82.40;;;;;;5051227;28;20033;-59
2022/03/05 10:21:09;;;;;;;46.28;32.67;;;16.40;81.60;;;;;;5051202;28;20021;-59
2022/03/05 10:23:42;;;;;;;41.70;31.48;;;16.40;79.50;;;;;;5051285;28;20041;-59
2022/03/05 10:26:09;;;;;;;43.17;31.17;;;16.20;79.80;;;;;;5051016;28;20471;-59
2022/03/05 10:28:37;;;;;;;42.72;31.98;;;15.40;78.60;;;;;;5051043;28;20029;-59
2022/03/05 10:31:11;;;;;;;41.45;32.35;;;15.30;79.40;;;;;;5051071;28;20045;-59
2022/03/05 10:33:42;;;;;;;45.47;32.03;;;15.20;81.20;;;;;;5051189;28;20390;-59
2022/03/05 10:36:21;;;;;;;42.67;32.15;;;16.00;80.30;;;;;;5051003;28;20104;-59
2022/03/05 10:38:50;;;;;;;44.50;30.52;;;16.30;78.10;;;;;;5050729;28;20087;-59
2022/03/05 10:41:30;;;;;;;43.75;30.73;;;16.30;77.70;;;;;;5050811;28;20087;-59
2022/03/05 10:44:15;;;;;;;41.38;30.13;;;17.50;75.30;;;;;;5051029;28;20100;-59
2022/03/05 10:46:41;;;;;;;41.65;28.77;;;17.80;71.80;;;;;;5051365;28;20111;-59
2022/03/05 10:49:10;;;;;;;39.72;30.58;;;18.10;65.90;;;;;;5050862;28;20482;-58
2022/03/05 10:51:37;;;;;;;38.70;29.77;;;17.70;66.80;;;;;;5050597;28;20048;-58
2022/03/05 10:54:02;;;;;;;41.22;31.23;;;17.30;68.70;;;;;;5050711;28;20031;-59
2022/03/05 10:56:32;;;;;;;39.35;29.67;;;17.50;69.00;;;;;;5051175;28;20100;-58
2022/03/05 10:59:05;;;;;;;39.60;29.65;;;18.00;67.70;;;;;;5050938;28;20442;-58
2022/03/05 11:01:33;;;;;;;38.00;29.05;;;18.20;64.80;;;;;;5050926;28;20122;-58
2022/03/05 11:03:59;;;;;;;43.65;30.38;;;17.80;66.10;;;;;;5050535;28;20025;-58
2022/03/05 11:06:26;;;;;;;39.38;29.10;;;17.90;66.90;;;;;;5050161;28;20489;-59
2022/03/05 11:08:52;;;;;;;37.88;29.13;;;18.10;66.10;;;;;;5050531;28;20063;-58
2022/03/05 11:11:19;;;;;;;41.65;29.55;;;17.60;65.10;;;;;;5050284;28;20023;-58
2022/03/05 11:13:45;;;;;;;42.90;29.90;;;18.10;65.80;;;;;;5049904;28;20029;-58
2022/03/05 11:16:12;;;;;;;42.75;29.30;;;17.80;64.80;;;;;;5050012;28;20017;-58
2022/03/05 11:18:42;;;;;;;39.10;29.58;;;17.70;64.30;;;;;;5050076;28;20032;-58
2022/03/05 11:21:08;;;;;;;40.90;30.08;;;17.50;65.70;;;;;;5050317;28;20486;-58
2022/03/05 11:23:36;;;;;;;41.75;29.10;;;17.90;65.70;;;;;;5050595;28;20040;-58
2022/03/05 11:26:07;;;;;;;37.83;28.80;;;17.30;65.80;;;;;;5050086;28;20056;-58
2022/03/05 11:28:44;;;;;;;41.75;28.35;;;17.40;65.70;;;;;;5050315;28;20104;-58
2022/03/05 11:31:21;;;;;;;43.72;29.27;;;17.10;65.70;;;;;;5049807;28;20117;-58
2022/03/05 11:33:48;;;;;;;41.72;28.80;;;17.20;66.00;;;;;;5050103;28;20025;-58
2022/03/05 11:36:32;;;;;;;39.50;26.60;;;17.30;65.30;;;;;;5049794;28;20017;-58
2022/03/05 11:39:18;;;;;;;38.47;26.13;;;18.10;61.60;;;;;;5049992;28;20021;-58
2022/03/05 11:42:03;;;;;;;32.17;23.85;;;18.70;59.30;;;;;;5050239;28;20056;-58
2022/03/05 11:44:42;;;;;;;35.95;24.10;;;18.70;57.50;;;;;;5050145;28;20021;-59
2022/03/05 11:47:22;;;;;;;33.05;24.75;;;18.30;57.80;;;;;;5050075;28;20025;-58
2022/03/05 11:52:43;;;;;;;36.63;25.58;;;19.00;56.90;;;;;;5049889;28;20078;-58
2022/03/05 11:55:14;;;;;;;32.53;22.65;;;18.80;56.30;;;;;;5050005;28;20029;-58
2022/03/05 11:58:06;;;;;;;32.58;22.70;;;18.50;54.90;;;;;;5049874;28;20024;-58
2022/03/05 12:00:33;;;;;;;32.83;24.33;;;18.80;54.50;;;;;;5046497;28;20040;-59
2022/03/05 12:03:00;;;;;;;28.33;23.50;;;18.00;56.00;;;;;;5049413;28;20433;-58
2022/03/05 12:05:38;;;;;;;36.22;24.38;;;18.40;56.20;;;;;;5049840;28;20521;-58
2022/03/05 12:08:21;;;;;;;29.67;22.42;;;19.60;54.60;;;;;;5049914;28;20438;-58
2022/03/05 12:11:10;;;;;;;26.20;20.02;;;19.40;53.20;;;;;;5049711;28;20032;-58
2022/03/05 12:14:00;;;;;;;32.17;20.60;;;18.60;52.40;;;;;;5049758;28;20108;-58
2022/03/05 12:16:29;;;;;;;33.10;23.20;;;18.80;53.50;;;;;;5046604;28;20422;-58
2022/03/05 12:18:57;;;;;;;32.63;21.80;;;19.10;54.20;;;;;;5049706;28;20021;-58
2022/03/05 12:21:26;;;;;;;27.17;20.92;;;19.30;52.40;;;;;;5049753;28;20286;-59
2022/03/05 12:24:08;;;;;;;33.05;21.92;;;19.50;52.00;;;;;;5049775;28;20025;-58
2022/03/05 12:26:55;;;;;;;34.10;23.23;;;19.10;52.20;;;;;;5052080;28;20384;-58
2022/03/05 12:29:21;;;;;;;31.85;23.65;;;19.90;53.20;;;;;;5053377;28;20394;-58
2022/03/05 12:31:47;;;;;;;29.83;21.17;;;19.70;53.20;;;;;;5053508;28;20045;-58
2022/03/05 12:34:19;;;;;;;32.30;23.15;;;19.80;51.70;;;;;;5053571;28;20032;-58
2022/03/05 12:36:46;;;;;;;34.05;24.42;;;19.40;52.20;;;;;;5053202;28;20092;-58
2022/03/05 12:39:12;;;;;;;33.05;23.50;;;18.80;54.00;;;;;;5052995;28;20025;-58